Time;durP1;ratioP1;P1;durP2;ratioP2;P2;SDS_P1;SDS_P2;PMS_P1;PMS_P2;Temp;Humidity;BMP_temperature;BMP_pressure;BME280_temperature;BME280_humidity;BME280_pressure;Samples;Min_cycle;Max_cycle;Signal;HPM_P1;HPM_P2
2022/10/20 00:00:56;;;;;;;11.07;6.05;;;;;;;13.77;100.00;100374.69;5038380;28;20036;-48
2022/10/20 00:03:22;;;;;;;10.18;6.20;;;;;;;13.75;100.00;100362.38;5037065;28;20052;-48
2022/10/20 00:05:48;;;;;;;17.45;7.50;;;;;;;13.79;100.00;100357.47;5042207;28;20029;-52
2022/10/20 00:08:14;;;;;;;14.90;5.53;;;;;;;13.79;100.00;100352.13;5037339;28;20092;-46
2022/10/20 00:10:39;;;;;;;17.30;7.85;;;;;;;13.76;100.00;100349.91;5032875;28;20076;-47
2022/10/20 00:13:04;;;;;;;14.20;6.90;;;;;;;13.75;100.00;100348.25;5041821;28;20112;-48
2022/10/20 00:15:30;;;;;;;12.85;6.72;;;;;;;13.74;100.00;100350.09;5031085;28;21085;-50
2022/10/20 00:17:55;;;;;;;10.60;6.55;;;;;;;13.75;100.00;100340.25;5033732;28;20034;-47
2022/10/20 00:20:20;;;;;;;17.70;6.88;;;;;;;13.83;100.00;100333.84;5039518;28;20024;-51
2022/10/20 00:22:46;;;;;;;14.27;5.22;;;;;;;13.80;100.00;100329.75;5029249;28;20482;-48
2022/10/20 00:25:11;;;;;;;9.80;5.43;;;;;;;13.78;100.00;100331.00;5033948;28;20467;-48
2022/10/20 00:27:37;;;;;;;18.20;6.75;;;;;;;13.74;100.00;100318.13;5036756;28;20045;-48
2022/10/20 00:30:02;;;;;;;14.90;7.00;;;;;;;13.72;100.00;100336.16;5033475;28;20063;-47
2022/10/20 00:32:30;;;;;;;17.02;6.55;;;;;;;13.71;100.00;100344.41;5039153;28;20385;-47
2022/10/20 00:34:56;;;;;;;13.00;6.93;;;;;;;13.69;100.00;100325.13;5041246;28;20064;-48
2022/10/20 00:37:21;;;;;;;15.30;6.43;;;;;;;13.73;100.00;100332.50;5042772;28;20302;-50
2022/10/20 00:39:47;;;;;;;15.60;6.10;;;;;;;13.71;100.00;100323.88;5042385;28;20067;-47
2022/10/20 00:42:17;;;;;;;15.93;6.97;;;;;;;13.73;100.00;100311.19;5040211;28;20071;-45
2022/10/20 00:44:58;;;;;;;11.52;6.80;;;;;;;13.74;100.00;100306.66;5048339;28;20387;-46
2022/10/20 00:47:32;;;;;;;13.45;7.35;;;;;;;13.76;100.00;100301.94;5038162;28;20029;-48
2022/10/20 00:50:09;;;;;;;19.20;5.75;;;;;;;13.72;100.00;100309.53;5040896;28;20022;-46
2022/10/20 00:52:36;;;;;;;10.25;5.18;;;;;;;13.71;100.00;100310.56;5038842;28;20071;-48
2022/10/20 00:55:02;;;;;;;11.70;7.45;;;;;;;13.71;100.00;100317.75;5037366;28;20036;-46
2022/10/20 00:57:30;;;;;;;14.30;6.53;;;;;;;13.73;100.00;100316.50;5045094;28;20398;-49
2022/10/20 00:59:55;;;;;;;13.00;5.32;;;;;;;13.71;100.00;100307.91;5045836;28;20505;-46
2022/10/20 01:02:21;;;;;;;13.38;6.55;;;;;;;13.69;100.00;100315.28;5041614;28;20033;-52
2022/10/20 01:04:46;;;;;;;20.30;8.20;;;;;;;13.68;100.00;100319.00;5041919;28;20033;-49
2022/10/20 01:07:12;;;;;;;11.18;5.25;;;;;;;13.67;100.00;100317.34;5041973;28;20342;-47
2022/10/20 01:09:38;;;;;;;13.85;5.43;;;;;;;13.69;100.00;100314.47;5040657;28;20073;-49
2022/10/20 01:12:15;;;;;;;9.45;5.35;;;;;;;13.66;100.00;100315.72;5040073;28;20032;-46
2022/10/20 01:14:59;;;;;;;15.85;7.10;;;;;;;13.67;100.00;100306.69;5037497;28;20025;-47
2022/10/20 01:17:44;;;;;;;15.68;6.05;;;;;;;13.65;100.00;100298.09;5044632;28;20052;-48
2022/10/20 01:20:32;;;;;;;10.18;6.60;;;;;;;13.63;100.00;100294.00;5038699;28;20029;-49
2022/10/20 01:22:57;;;;;;;14.32;7.07;;;;;;;13.63;100.00;100292.19;5036644;28;20053;-48
2022/10/20 01:25:58;;;;;;;10.45;6.28;;;;;;;13.64;100.00;100288.47;5036383;28;20394;-49
2022/10/20 01:28:39;;;;;;;16.60;7.30;;;;;;;13.57;100.00;100293.03;5045856;28;20049;-46
2022/10/20 01:31:15;;;;;;;14.55;6.32;;;;;;;13.53;100.00;100283.84;5043748;28;20025;-52
2022/10/20 01:33:53;;;;;;;25.65;7.00;;;;;;;13.47;100.00;100279.38;5034882;28;20073;-51
2022/10/20 01:36:46;;;;;;;21.20;8.60;;;;;;;13.49;100.00;100282.63;5049070;28;20045;-49
2022/10/20 01:39:18;;;;;;;7.72;5.55;;;;;;;13.50;100.00;100284.25;5042375;28;20029;-47
2022/10/20 01:42:06;;;;;;;17.27;6.68;;;;;;;13.56;100.00;100279.94;5037208;28;20028;-46
2022/10/20 01:44:34;;;;;;;15.88;6.25;;;;;;;13.55;100.00;100289.75;5036350;28;20041;-47
2022/10/20 01:47:01;;;;;;;15.85;7.32;;;;;;;13.59;100.00;100298.97;5033126;28;20638;-47
2022/10/20 01:49:26;;;;;;;14.48;7.13;;;;;;;13.62;100.00;100298.53;5046234;28;20028;-47
2022/10/20 01:51:53;;;;;;;12.82;7.43;;;;;;;13.67;100.00;100300.56;5044763;28;20092;-46
2022/10/20 01:54:25;;;;;;;17.88;8.02;;;;;;;13.68;100.00;100297.69;5035166;28;20678;-46
2022/10/20 01:57:08;;;;;;;16.02;6.82;;;;;;;13.71;100.00;100297.25;5038456;28;20036;-50
2022/10/20 01:59:45;;;;;;;12.88;6.97;;;;;;;13.72;100.00;100287.41;5039950;28;20037;-46
2022/10/20 02:02:25;;;;;;;14.40;7.65;;;;;;;13.74;100.00;100288.00;5036172;28;20060;-50
2022/10/20 02:05:19;;;;;;;14.32;6.45;;;;;;;13.75;100.00;100269.13;5040226;28;20078;-49
2022/10/20 02:07:44;;;;;;;10.63;6.43;;;;;;;13.71;100.00;100270.59;5020553;28;20052;-47
2022/10/20 02:10:18;;;;;;;12.45;6.35;;;;;;;13.72;100.00;100277.56;5044324;28;20046;-50
2022/10/20 02:12:49;;;;;;;14.60;7.72;;;;;;;13.72;100.00;100276.75;5039550;28;20072;-47
2022/10/20 02:15:21;;;;;;;15.93;7.47;;;;;;;13.69;100.00;100280.66;5041629;28;20028;-47
2022/10/20 02:17:51;;;;;;;21.67;10.65;;;;;;;13.69;100.00;100283.31;5037718;28;20033;-48
2022/10/20 02:20:16;;;;;;;20.65;7.57;;;;;;;13.68;100.00;100276.38;5045894;28;20100;-46
2022/10/20 02:22:43;;;;;;;13.82;8.05;;;;;;;13.69;100.00;100277.19;5036984;28;20070;-49
2022/10/20 02:25:11;;;;;;;16.58;7.78;;;;;;;13.69;100.00;100266.53;5039617;28;20124;-47
2022/10/20 02:27:41;;;;;;;15.07;7.10;;;;;;;13.70;100.00;100268.94;5045312;28;20037;-46
2022/10/20 02:30:09;;;;;;;15.13;8.10;;;;;;;13.69;100.00;100267.34;5030938;28;20029;-46
2022/10/20 02:32:37;;;;;;;15.32;7.93;;;;;;;13.68;100.00;100260.38;5037121;28;20437;-47
2022/10/20 02:35:05;;;;;;;14.82;7.88;;;;;;;13.70;100.00;100260.97;5040345;28;20076;-47
2022/10/20 02:37:31;;;;;;;17.95;8.32;;;;;;;13.69;100.00;100255.88;5042421;28;20029;-47
2022/10/20 02:39:56;;;;;;;12.93;6.97;;;;;;;13.69;100.00;100255.88;5039726;28;20446;-47
2022/10/20 02:42:21;;;;;;;16.05;6.85;;;;;;;13.70;100.00;100252.97;5032261;28;20022;-47
2022/10/20 02:44:47;;;;;;;13.70;6.68;;;;;;;13.70;100.00;100262.81;5036047;28;20036;-49
2022/10/20 02:47:12;;;;;;;13.38;7.40;;;;;;;13.68;100.00;100265.72;5039195;28;20129;-48
2022/10/20 02:49:38;;;;;;;16.30;7.53;;;;;;;13.68;100.00;100268.38;5038397;28;20044;-47
2022/10/20 02:52:03;;;;;;;15.50;8.10;;;;;;;13.67;100.00;100258.72;5034728;28;20033;-49
2022/10/20 02:54:28;;;;;;;18.98;7.70;;;;;;;13.68;100.00;100246.22;5029494;28;20107;-51
2022/10/20 02:56:54;;;;;;;14.77;8.07;;;;;;;13.70;100.00;100242.31;5044343;28;20033;-47
2022/10/20 02:59:19;;;;;;;14.32;6.57;;;;;;;13.71;100.00;100235.97;5039847;28;20064;-50
2022/10/20 03:01:45;;;;;;;15.52;7.75;;;;;;;13.69;100.00;100227.38;5032243;28;20442;-46
2022/10/20 03:04:12;;;;;;;14.93;8.23;;;;;;;13.72;100.00;100234.13;5039821;28;20172;-46
2022/10/20 03:06:38;;;;;;;20.48;9.45;;;;;;;13.70;100.00;100229.00;5041539;28;20624;-50
2022/10/20 03:09:04;;;;;;;18.10;8.38;;;;;;;13.70;100.00;100226.31;5036274;28;20351;-46
2022/10/20 03:11:29;;;;;;;17.50;9.00;;;;;;;13.70;100.00;100222.84;5043143;28;20071;-48
2022/10/20 03:13:55;;;;;;;26.15;7.47;;;;;;;13.69;100.00;100214.03;5041351;28;20461;-48
2022/10/20 03:16:20;;;;;;;24.25;10.63;;;;;;;13.67;100.00;100216.09;5045731;28;20116;-47
2022/10/20 03:18:45;;;;;;;24.30;10.80;;;;;;;13.67;100.00;100205.44;5035454;28;20498;-48
2022/10/20 03:21:11;;;;;;;15.18;8.68;;;;;;;13.66;100.00;100203.03;5036642;28;20025;-46
2022/10/20 03:23:36;;;;;;;14.48;8.35;;;;;;;13.66;100.00;100203.84;5043800;28;20365;-47
2022/10/20 03:26:03;;;;;;;12.90;8.55;;;;;;;13.65;100.00;100194.19;5044095;28;20025;-51
2022/10/20 03:28:29;;;;;;;23.80;10.40;;;;;;;13.63;100.00;100187.44;5041702;28;20057;-47
2022/10/20 03:30:55;;;;;;;23.67;9.77;;;;;;;13.64;100.00;100176.59;5040880;28;20025;-49
2022/10/20 03:33:20;;;;;;;21.52;9.30;;;;;;;13.63;100.00;100177.63;5038078;28;20060;-46
2022/10/20 03:35:45;;;;;;;17.83;9.57;;;;;;;13.63;100.00;100174.97;5045107;28;20039;-47
2022/10/20 03:38:11;;;;;;;23.52;8.90;;;;;;;13.63;100.00;100188.28;5049894;28;20024;-50
2022/10/20 03:40:36;;;;;;;17.42;8.52;;;;;;;13.64;100.00;100195.22;5049535;28;20040;-47
2022/10/20 03:43:01;;;;;;;26.27;11.45;;;;;;;13.65;100.00;100193.38;5045664;28;20032;-46
2022/10/20 03:45:29;;;;;;;28.40;10.23;;;;;;;13.68;100.00;100191.13;5035856;28;20028;-46
2022/10/20 03:47:54;;;;;;;24.58;11.32;;;;;;;13.66;100.00;100193.19;5047437;28;20078;-47
2022/10/20 03:50:19;;;;;;;25.45;10.13;;;;;;;13.68;100.00;100191.13;5045673;28;20447;-47
2022/10/20 03:52:47;;;;;;;22.17;9.10;;;;;;;13.69;100.00;100192.72;5036039;28;20068;-47
2022/10/20 03:55:12;;;;;;;24.77;7.95;;;;;;;13.70;100.00;100190.88;5050917;28;20033;-47
2022/10/20 03:57:38;;;;;;;26.23;10.70;;;;;;;13.68;100.00;100180.47;5038497;28;20033;-47
2022/10/20 04:00:03;;;;;;;24.95;11.02;;;;;;;13.70;100.00;100189.03;5043898;28;20413;-46
2022/10/20 04:02:38;;;;;;;25.52;11.73;;;;;;;13.73;100.00;100177.13;5042554;28;20043;-48
2022/10/20 04:05:04;;;;;;;21.35;10.23;;;;;;;13.72;100.00;100181.63;5033911;28;20363;-47
2022/10/20 04:07:30;;;;;;;23.77;11.65;;;;;;;13.73;100.00;100188.63;5034761;28;20030;-48
2022/10/20 04:09:55;;;;;;;33.00;11.02;;;;;;;13.73;100.00;100183.28;5040706;28;20036;-47
2022/10/20 04:12:22;;;;;;;22.77;10.57;;;;;;;13.74;100.00;100186.75;5042917;28;20483;-51
2022/10/20 04:14:47;;;;;;;26.25;10.50;;;;;;;13.72;100.00;100176.31;5048647;28;20456;-50
2022/10/20 04:17:13;;;;;;;27.50;10.25;;;;;;;13.73;100.00;100183.28;5035808;28;20053;-48
2022/10/20 04:19:39;;;;;;;27.33;12.82;;;;;;;13.72;100.00;100181.63;5047158;28;20024;-49
2022/10/20 04:22:04;;;;;;;24.58;10.63;;;;;;;13.71;100.00;100181.88;5043195;28;20033;-50
2022/10/20 04:24:30;;;;;;;25.95;10.60;;;;;;;13.69;100.00;100176.75;5047545;28;20383;-47
2022/10/20 04:26:55;;;;;;;21.40;10.48;;;;;;;13.69;100.00;100174.09;5044005;28;20037;-51
2022/10/20 04:29:21;;;;;;;22.42;10.48;;;;;;;13.69;100.00;100176.75;5047321;28;20025;-50
2022/10/20 04:31:46;;;;;;;29.25;11.93;;;;;;;13.69;100.00;100174.09;5042311;28;20065;-47
2022/10/20 04:34:12;;;;;;;28.88;11.90;;;;;;;13.66;100.00;100157.72;5044082;28;20095;-47
2022/10/20 04:36:37;;;;;;;28.80;14.13;;;;;;;13.66;100.00;100160.41;5049453;28;20060;-46
2022/10/20 04:39:06;;;;;;;22.48;11.30;;;;;;;13.66;100.00;100155.88;5044075;28;20047;-47
2022/10/20 04:41:31;;;;;;;27.65;10.60;;;;;;;13.65;100.00;100164.06;5052158;28;20056;-46
2022/10/20 04:43:57;;;;;;;18.60;9.60;;;;;;;13.64;100.00;100163.25;5052270;28;20068;-47
2022/10/20 04:46:22;;;;;;;20.42;10.45;;;;;;;13.65;100.00;100164.06;5043403;28;20079;-48
2022/10/20 04:48:48;;;;;;;22.23;11.48;;;;;;;13.64;100.00;100171.25;5043827;28;20082;-46
2022/10/20 04:51:14;;;;;;;30.27;10.57;;;;;;;13.63;100.00;100174.97;5044731;28;20083;-46
2022/10/20 04:53:40;;;;;;;23.95;12.57;;;;;;;13.62;100.00;100183.16;5038027;28;20106;-50
2022/10/20 04:56:10;;;;;;;27.42;13.45;;;;;;;13.62;100.00;100177.84;5050143;28;20032;-49
2022/10/20 04:58:36;;;;;;;27.70;11.48;;;;;;;13.61;100.00;100186.88;5043802;28;20029;-52
2022/10/20 05:01:11;;;;;;;17.17;10.57;;;;;;;13.61;100.00;100169.03;5048739;28;20524;-49
2022/10/20 05:03:37;;;;;;;29.00;13.05;;;;;;;13.59;100.00;100176.44;5043669;28;20382;-46
2022/10/20 05:06:12;;;;;;;30.83;12.13;;;;;;;13.59;100.00;100173.75;5042485;28;20037;-48
2022/10/20 05:08:38;;;;;;;31.20;14.95;;;;;;;13.59;100.00;100165.78;5040973;28;20037;-47
2022/10/20 05:11:03;;;;;;;23.98;12.30;;;;;;;13.57;100.00;100151.84;5041021;28;20025;-49
2022/10/20 05:13:29;;;;;;;28.88;11.68;;;;;;;13.57;100.00;100145.72;5043981;28;20044;-53
2022/10/20 05:15:54;;;;;;;27.00;10.40;;;;;;;13.56;100.00;100154.75;5053514;28;20032;-52
2022/10/20 05:18:19;;;;;;;31.92;12.63;;;;;;;13.56;100.00;100149.41;5044635;28;20493;-47
2022/10/20 05:20:45;;;;;;;24.13;12.27;;;;;;;13.53;100.00;100150.66;5037715;28;20029;-50
2022/10/20 05:23:10;;;;;;;30.35;14.02;;;;;;;13.50;100.00;100135.94;5038778;28;20593;-49
2022/10/20 05:25:36;;;;;;;28.25;11.68;;;;;;;13.50;100.00;100133.28;5045028;28;20033;-51
2022/10/20 05:28:03;;;;;;;24.58;11.77;;;;;;;13.51;100.00;100142.06;5039195;28;20041;-50
2022/10/20 05:30:28;;;;;;;21.08;11.55;;;;;;;13.49;100.00;100144.13;5048508;28;20264;-50
2022/10/20 05:32:53;;;;;;;19.83;10.95;;;;;;;13.50;100.00;100130.63;5038273;28;20037;-47
2022/10/20 05:35:19;;;;;;;24.83;11.65;;;;;;;13.50;100.00;100129.78;5035056;28;20057;-48
2022/10/20 05:37:44;;;;;;;23.08;10.15;;;;;;;13.50;100.00;100127.13;5054323;28;20428;-49
2022/10/20 05:40:10;;;;;;;22.50;11.13;;;;;;;13.49;100.00;100128.16;5043989;28;20029;-50
2022/10/20 05:42:35;;;;;;;32.08;12.82;;;;;;;13.46;100.00;100123.28;5043533;28;20029;-53
2022/10/20 05:45:01;;;;;;;18.52;10.05;;;;;;;13.45;100.00;100116.31;5052219;28;20044;-54
2022/10/20 05:47:26;;;;;;;20.70;10.70;;;;;;;13.44;100.00;100123.47;5042259;28;20025;-50
2022/10/20 05:49:51;;;;;;;18.55;8.50;;;;;;;13.43;100.00;100121.88;5044915;28;20082;-49
2022/10/20 05:52:17;;;;;;;20.15;10.52;;;;;;;13.40;100.00;100118.81;5045409;28;20094;-49
2022/10/20 05:54:42;;;;;;;23.05;11.25;;;;;;;13.41;100.00;100115.13;5044193;28;20037;-52
2022/10/20 05:57:07;;;;;;;23.35;9.85;;;;;;;13.41;100.00;100121.25;5034647;28;20440;-52
2022/10/20 05:59:33;;;;;;;28.90;12.88;;;;;;;13.41;100.00;100123.13;5039541;28;20040;-50
2022/10/20 06:01:58;;;;;;;33.05;13.68;;;;;;;13.41;100.00;100117.78;5035271;28;20098;-50
2022/10/20 06:04:24;;;;;;;23.92;11.23;;;;;;;13.41;100.00;100115.94;5033823;28;20059;-51
2022/10/20 06:06:53;;;;;;;29.90;14.43;;;;;;;13.44;100.00;100112.03;5036093;28;20033;-53
2022/10/20 06:09:19;;;;;;;15.20;9.93;;;;;;;13.43;100.00;100113.06;5034522;28;20025;-54
2022/10/20 06:11:45;;;;;;;21.55;11.32;;;;;;;13.41;100.00;100097.28;5031144;28;20014;-50
2022/10/20 06:14:10;;;;;;;20.45;11.45;;;;;;;13.40;100.00;100103.66;5037576;28;20478;-51
2022/10/20 06:16:36;;;;;;;24.98;11.13;;;;;;;13.41;100.00;100094.63;5034458;28;20062;-51
2022/10/20 06:19:01;;;;;;;20.92;11.60;;;;;;;13.43;100.00;100099.75;5030089;28;20037;-49
2022/10/20 06:21:29;;;;;;;19.77;10.20;;;;;;;13.43;100.00;100097.91;5029865;28;20021;-54
2022/10/20 06:23:57;;;;;;;18.00;9.60;;;;;;;13.41;100.00;100089.31;5038433;28;20116;-54
2022/10/20 06:26:25;;;;;;;25.90;11.63;;;;;;;13.41;100.00;100099.97;5027618;28;20038;-51
2022/10/20 06:28:55;;;;;;;26.45;13.52;;;;;;;13.42;100.00;100095.44;5034668;28;20279;-51
2022/10/20 06:31:22;;;;;;;18.50;9.20;;;;;;;13.39;100.00;100098.53;5035783;28;20029;-50
2022/10/20 06:33:48;;;;;;;23.73;10.52;;;;;;;13.38;100.00;100095.06;5036314;28;20155;-52
2022/10/20 06:36:14;;;;;;;22.13;10.75;;;;;;;13.40;100.00;100102.81;5036466;28;20032;-51
2022/10/20 06:38:40;;;;;;;23.42;11.30;;;;;;;13.39;100.00;100102.03;5037058;28;20040;-54
2022/10/20 06:41:08;;;;;;;16.90;10.10;;;;;;;13.40;100.00;100106.31;5037132;28;20021;-51
2022/10/20 06:43:34;;;;;;;28.42;13.40;;;;;;;13.39;100.00;100107.34;5034975;28;20037;-51
2022/10/20 06:46:02;;;;;;;22.13;12.50;;;;;;;13.41;100.00;100107.13;5031696;28;20032;-52
2022/10/20 06:48:28;;;;;;;22.45;11.88;;;;;;;13.41;100.00;100109.78;5042583;28;20071;-53
2022/10/20 06:51:04;;;;;;;24.50;9.68;;;;;;;13.42;100.00;100100.75;5030947;28;20055;-51
2022/10/20 06:53:32;;;;;;;23.05;11.13;;;;;;;13.42;100.00;100095.44;5026251;28;20067;-49
2022/10/20 06:55:59;;;;;;;22.45;10.52;;;;;;;13.43;100.00;100097.09;5034084;28;20025;-50
2022/10/20 06:58:26;;;;;;;25.85;11.75;;;;;;;13.43;100.00;100092.56;5032236;28;20064;-51
2022/10/20 07:01:03;;;;;;;24.40;11.57;;;;;;;13.46;100.00;100091.31;5031199;28;20060;-54
2022/10/20 07:03:30;;;;;;;21.33;10.45;;;;;;;13.44;100.00;100090.72;5034156;28;20037;-51
2022/10/20 07:05:56;;;;;;;25.33;10.73;;;;;;;13.45;100.00;100089.66;5039018;28;20025;-51
2022/10/20 07:08:22;;;;;;;24.98;13.57;;;;;;;13.46;100.00;100092.13;5026745;28;20091;-54
2022/10/20 07:11:05;;;;;;;25.13;12.13;;;;;;;13.49;100.00;100091.69;5031750;28;20478;-50
2022/10/20 07:13:31;;;;;;;18.38;9.18;;;;;;;13.50;100.00;100082.69;5032566;28;20029;-52
2022/10/20 07:15:57;;;;;;;24.95;11.18;;;;;;;13.52;100.00;100082.44;5036978;28;20029;-54
2022/10/20 07:18:24;;;;;;;20.25;10.10;;;;;;;13.54;100.00;100083.03;5035698;28;20032;-55
2022/10/20 07:20:49;;;;;;;22.95;9.90;;;;;;;13.55;100.00;100076.66;5037285;28;20100;-53
2022/10/20 07:23:15;;;;;;;26.40;11.50;;;;;;;13.58;100.00;100067.41;5041048;28;20446;-53
2022/10/20 07:25:40;;;;;;;18.73;11.43;;;;;;;13.58;100.00;100062.94;5032851;28;20034;-55
2022/10/20 07:28:06;;;;;;;17.50;10.02;;;;;;;13.58;100.00;100068.25;5031361;28;20053;-51
2022/10/20 07:30:36;;;;;;;26.45;12.85;;;;;;;13.56;100.00;100065.00;5039424;28;20025;-53
2022/10/20 07:33:01;;;;;;;22.25;11.82;;;;;;;13.58;100.00;100068.25;5034560;28;20495;-54
2022/10/20 07:35:29;;;;;;;18.35;10.50;;;;;;;13.63;100.00;100076.41;5034296;28;20104;-52
2022/10/20 07:37:54;;;;;;;21.92;11.57;;;;;;;13.64;100.00;100069.22;5042234;28;20029;-50
2022/10/20 07:40:19;;;;;;;19.92;11.43;;;;;;;13.65;100.00;100071.66;5032107;28;20030;-50
2022/10/20 07:42:45;;;;;;;18.50;10.15;;;;;;;13.66;100.00;100067.97;5037433;28;20108;-50
2022/10/20 07:45:10;;;;;;;17.83;10.27;;;;;;;13.68;100.00;100073.88;5044257;28;20025;-50
2022/10/20 07:47:35;;;;;;;19.30;11.55;;;;;;;13.72;100.00;100080.38;5045600;28;20076;-51
2022/10/20 07:50:01;;;;;;;16.10;9.20;;;;;;;13.73;100.00;100074.03;5043697;28;20134;-49
2022/10/20 07:52:29;;;;;;;17.10;8.23;;;;;;;13.78;100.00;100072.53;5041209;28;20025;-50
2022/10/20 07:54:54;;;;;;;16.50;9.75;;;;;;;13.81;100.00;100072.09;5045952;28;20375;-53
2022/10/20 07:57:19;;;;;;;18.00;9.73;;;;;;;13.84;100.00;100074.34;5041880;28;20035;-54
2022/10/20 07:59:45;;;;;;;18.08;10.52;;;;;;;13.87;100.00;100071.22;5039993;28;20045;-56
2022/10/20 08:02:12;;;;;;;16.35;9.15;;;;;;;13.92;100.00;100069.50;5043535;28;20482;-53
2022/10/20 08:04:37;;;;;;;13.95;9.32;;;;;;;13.95;100.00;100074.41;5044624;28;20032;-53
2022/10/20 08:07:03;;;;;;;13.02;8.00;;;;;;;14.00;100.00;100072.94;5045742;28;20025;-52
2022/10/20 08:09:28;;;;;;;11.95;8.40;;;;;;;14.01;100.00;100071.88;5041777;28;20413;-54
2022/10/20 08:11:53;;;;;;;14.57;9.07;;;;;;;14.05;100.00;100073.88;5036603;28;20026;-53
2022/10/20 08:14:19;;;;;;;11.07;7.25;;;;;;;14.06;100.00;100072.81;5049036;28;20064;-55
2022/10/20 08:16:44;;;;;;;13.27;7.68;;;;;;;14.08;100.00;100065.44;5044102;28;20051;-53
2022/10/20 08:19:09;;;;;;;18.20;10.43;;;;;;;14.10;100.00;100065.22;5047548;28;20136;-53
2022/10/20 08:21:35;;;;;;;11.30;7.70;;;;;;;14.12;100.00;100063.97;5042211;28;20040;-49
2022/10/20 08:24:01;;;;;;;13.93;8.48;;;;;;;14.14;100.00;100071.72;5045571;28;20025;-50
2022/10/20 08:26:27;;;;;;;16.52;9.60;;;;;;;14.14;100.00;100063.72;5039222;28;20025;-52
2022/10/20 08:28:54;;;;;;;13.00;9.27;;;;;;;14.14;100.00;100061.84;5041855;28;20376;-53
2022/10/20 08:31:20;;;;;;;11.10;7.30;;;;;;;14.11;100.00;100067.63;5046433;28;20039;-51
2022/10/20 08:33:46;;;;;;;10.68;5.72;;;;;;;14.09;100.00;100074.22;5042647;28;20037;-55
2022/10/20 08:36:13;;;;;;;9.55;6.32;;;;;;;14.09;100.00;100067.03;5044165;28;20032;-52
2022/10/20 08:38:40;;;;;;;14.75;7.00;;;;;;;14.10;100.00;100062.56;5048630;28;20378;-49
2022/10/20 08:41:22;;;;;;;11.70;5.97;;;;;;;14.09;100.00;100058.25;5042793;28;20140;-51
2022/10/20 08:43:50;;;;;;;6.97;5.35;;;;;;;14.07;100.00;100055.81;5036820;28;20116;-49
2022/10/20 08:46:18;;;;;;;9.98;5.60;;;;;;;14.08;100.00;100064.63;5044559;28;20067;-51
2022/10/20 08:48:45;;;;;;;6.30;5.07;;;;;;;14.07;100.00;100061.16;5035931;28;20386;-52
2022/10/20 08:51:23;;;;;;;7.40;4.80;;;;;;;14.10;100.00;100058.03;5040189;28;20064;-49
2022/10/20 08:53:52;;;;;;;11.57;5.25;;;;;;;14.10;100.00;100052.69;5048197;28;20138;-54
2022/10/20 08:56:21;;;;;;;10.75;6.15;;;;;;;14.12;100.00;100055.13;5042628;28;20061;-52
2022/10/20 08:58:47;;;;;;;11.93;6.57;;;;;;;14.14;100.00;100050.38;5042953;28;20481;-55
2022/10/20 09:01:36;;;;;;;6.18;4.85;;;;;;;14.19;100.00;100035.34;5040631;28;20032;-51
2022/10/20 09:04:20;;;;;;;6.10;5.25;;;;;;;14.21;100.00;100034.31;5032787;28;20037;-50
2022/10/20 09:06:50;;;;;;;9.35;4.35;;;;;;;14.21;100.00;100039.66;5035054;28;20439;-48
2022/10/20 09:09:19;;;;;;;5.70;4.53;;;;;;;14.22;100.00;100039.41;5038000;28;20076;-52
2022/10/20 09:11:45;;;;;;;6.20;4.40;;;;;;;14.22;100.00;100035.94;5046865;28;20068;-50
2022/10/20 09:14:11;;;;;;;5.43;3.90;;;;;;;14.22;100.00;100038.59;5037668;28;20113;-51
2022/10/20 09:16:39;;;;;;;5.78;3.35;;;;;;;14.21;100.00;100040.44;5037722;28;20029;-52
2022/10/20 09:19:14;;;;;;;7.03;4.38;;;;;;;14.21;100.00;100036.97;5037783;28;20442;-55
2022/10/20 09:21:40;;;;;;;4.10;3.30;;;;;;;14.23;100.00;100034.91;5039326;28;20083;-52
2022/10/20 09:24:06;;;;;;;3.47;3.17;;;;;;;14.24;100.00;100044.53;5031860;28;20024;-49
2022/10/20 09:26:34;;;;;;;5.88;3.35;;;;;;;14.28;100.00;100043.03;5043914;28;20048;-54
2022/10/20 09:29:17;;;;;;;4.88;4.28;;;;;;;14.31;100.00;100039.91;5036173;28;20049;-51
2022/10/20 09:31:48;;;;;;;6.70;4.15;;;;;;;14.31;100.00;100042.59;5044726;28;20482;-54
2022/10/20 09:34:24;;;;;;;7.30;4.45;;;;;;;14.31;100.00;100046.06;5038949;28;20114;-50
2022/10/20 09:36:53;;;;;;;8.07;4.47;;;;;;;14.31;100.00;100045.25;5037010;28;20117;-48
2022/10/20 09:39:22;;;;;;;6.68;4.53;;;;;;;14.30;100.00;100041.78;5035949;28;20039;-48
2022/10/20 09:41:48;;;;;;;5.78;3.58;;;;;;;14.33;100.00;100049.31;5047715;28;20029;-51
2022/10/20 09:44:22;;;;;;;6.22;2.95;;;;;;;14.36;100.00;100048.06;5040847;28;20032;-54
2022/10/20 09:46:50;;;;;;;5.38;3.22;;;;;;;14.40;100.00;100043.88;5032087;28;20084;-50
2022/10/20 09:49:29;;;;;;;5.50;3.80;;;;;;;14.48;100.00;100046.25;5044569;28;20030;-49
2022/10/20 09:51:55;;;;;;;9.43;3.72;;;;;;;14.48;100.00;100045.41;5043472;28;20036;-51
2022/10/20 09:54:23;;;;;;;5.05;4.07;;;;;;;14.46;100.00;100042.19;5040490;28;20147;-49
2022/10/20 09:56:49;;;;;;;4.22;3.40;;;;;;;14.39;100.00;100040.41;5030188;28;20415;-49
2022/10/20 09:59:26;;;;;;;6.18;4.05;;;;;;;14.38;100.00;100045.97;5044632;28;20021;-52
2022/10/20 10:02:03;;;;;;;5.50;4.20;;;;;;;14.38;100.00;100040.66;5031428;28;20033;-50
2022/10/20 10:04:43;;;;;;;3.30;3.00;;;;;;;14.35;100.00;100044.59;5014385;28;20063;-50
2022/10/20 10:07:20;;;;;;;4.10;3.38;;;;;;;14.31;100.00;100038.06;5034820;28;20043;-49
2022/10/20 10:09:58;;;;;;;3.88;2.72;;;;;;;14.29;100.00;100045.47;5031069;28;20041;-51
2022/10/20 10:12:26;;;;;;;5.18;3.45;;;;;;;14.26;100.00;100051.25;5040961;28;20227;-51
2022/10/20 10:14:55;;;;;;;6.03;3.33;;;;;;;14.18;100.00;100046.25;5036296;28;20027;-49
2022/10/20 10:17:41;;;;;;;9.23;2.17;;;;;;;14.05;100.00;100041.09;5037907;28;20026;-51
2022/10/20 10:20:28;;;;;;;4.50;2.10;;;;;;;13.97;100.00;100044.88;5029317;28;20029;-52
2022/10/20 10:23:18;;;;;;;2.70;1.02;;;;;;;13.92;100.00;100034.88;5034842;28;20034;-51
2022/10/20 10:25:44;;;;;;;7.47;1.15;;;;;;;13.85;100.00;100031.47;5033606;28;20028;-49
2022/10/20 10:28:18;;;;;;;4.20;0.77;;;;;;;13.83;100.00;100032.72;5030402;28;20116;-49
2022/10/20 10:30:44;;;;;;;3.95;1.27;;;;;;;13.81;100.00;100030.31;5038278;28;20116;-49
2022/10/20 10:33:36;;;;;;;2.47;1.25;;;;;;;13.84;100.00;100023.72;5038160;28;20371;-50
2022/10/20 10:36:06;;;;;;;2.75;0.95;;;;;;;13.84;100.00;100015.72;5033423;28;20086;-49
2022/10/20 10:38:37;;;;;;;1.05;0.95;;;;;;;13.84;100.00;100015.72;5040608;28;20434;-54
2022/10/20 10:41:26;;;;;;;4.43;1.20;;;;;;;13.80;100.00;100003.88;5033332;28;20075;-49
2022/10/20 10:44:02;;;;;;;3.40;1.20;;;;;;;13.82;100.00;99999.94;5029466;28;20453;-54
2022/10/20 10:46:36;;;;;;;4.85;0.98;;;;;;;13.83;100.00;99987.44;5037481;28;20262;-50
2022/10/20 10:49:18;;;;;;;2.65;0.73;;;;;;;13.77;100.00;99977.69;5035604;28;20057;-51
2022/10/20 10:52:05;;;;;;;3.42;0.80;;;;;;;13.74;100.00;99987.72;5032725;28;20028;-55
2022/10/20 10:54:58;;;;;;;2.50;0.65;;;;;;;13.71;100.00;99980.19;5042809;28;20297;-50
2022/10/20 10:57:39;;;;;;;1.58;0.80;;;;;;;13.75;100.00;99980.56;5042724;28;20607;-53
2022/10/20 11:00:16;;;;;;;1.10;0.77;;;;;;;13.80;100.00;99982.56;5041070;28;20172;-54
2022/10/20 11:02:56;;;;;;;1.70;0.77;;;;;;;13.82;100.00;99983.16;5041235;28;20087;-54
2022/10/20 11:05:56;;;;;;;0.93;0.80;;;;;;;13.80;100.00;99990.53;5044164;28;20230;-50
2022/10/20 11:08:33;;;;;;;3.03;0.60;;;;;;;13.73;100.00;99983.47;5033000;28;20033;-52
2022/10/20 11:11:30;;;;;;;1.30;0.30;;;;;;;13.64;100.00;99986.63;5039154;28;20033;-52
2022/10/20 11:14:21;;;;;;;2.50;0.22;;;;;;;13.63;100.00;99985.84;5035927;28;20124;-52
2022/10/20 11:17:19;;;;;;;4.75;0.47;;;;;;;13.64;100.00;99998.09;5041209;28;20112;-49
2022/10/20 11:19:53;;;;;;;3.63;0.77;;;;;;;13.60;100.00;99988.91;5039842;28;20099;-50